createdAt,value
2022-09-10T00:00:58.196Z,1.63
2022-09-10T00:06:03.959Z,1.83
2022-09-10T00:11:10.019Z,1.30
2022-09-10T00:16:14.737Z,1.27
2022-09-10T00:21:19.953Z,1.50
2022-09-10T00:26:24.943Z,1.30
2022-09-10T00:31:27.748Z,1.23
2022-09-10T00:36:33.939Z,1.20
2022-09-10T00:41:39.430Z,1.45
2022-09-10T00:46:47.623Z,1.48
2022-09-10T00:51:52.865Z,1.67
2022-09-10T00:56:59.806Z,1.50
2022-09-10T01:02:02.914Z,1.17
2022-09-10T01:07:07.479Z,1.80
2022-09-10T01:12:35.987Z,1.55
2022-09-10T01:17:47.111Z,1.25
2022-09-10T01:23:34.412Z,1.27
2022-09-10T01:29:02.448Z,1.63
2022-09-10T01:34:20.409Z,1.23
2022-09-10T01:39:24.628Z,1.27
2022-09-10T01:44:44.814Z,1.60
2022-09-10T01:50:03.376Z,1.52
2022-09-10T01:55:20.999Z,0.95
2022-09-10T02:00:25.997Z,1.25
2022-09-10T02:05:31.814Z,1.88
2022-09-10T02:10:34.821Z,1.10
2022-09-10T02:15:41.875Z,1.60
2022-09-10T02:21:07.399Z,1.35
2022-09-10T02:26:09.795Z,1.35
2022-09-10T02:31:12.125Z,1.42
2022-09-10T02:36:14.137Z,1.20
2022-09-10T02:41:17.435Z,1.40
2022-09-10T02:46:20.126Z,1.20
2022-09-10T02:51:25.825Z,1.30
2022-09-10T02:56:27.968Z,1.27
2022-09-10T03:01:30.174Z,1.58
2022-09-10T03:06:38.499Z,1.35
2022-09-10T03:11:40.825Z,1.70
2022-09-10T03:16:43.523Z,1.25
2022-09-10T03:21:47.683Z,1.33
2022-09-10T03:26:49.778Z,1.38
2022-09-10T03:31:51.910Z,1.50
2022-09-10T03:36:55.859Z,1.38
2022-09-10T03:41:58.775Z,1.65
2022-09-10T03:47:03.416Z,1.35
2022-09-10T03:52:06.044Z,1.13
2022-09-10T03:57:11.889Z,1.33
2022-09-10T04:02:14.953Z,1.10
2022-09-10T04:07:17.154Z,1.23
2022-09-10T04:12:19.308Z,0.90
2022-09-10T04:17:21.693Z,0.88
2022-09-10T04:22:24.963Z,0.98
2022-09-10T04:27:28.693Z,1.00
2022-09-10T04:32:31.465Z,1.00
2022-09-10T04:37:34.877Z,1.10
2022-09-10T04:42:38.883Z,0.90
2022-09-10T04:47:41.354Z,1.02
2022-09-10T04:52:43.574Z,1.08
2022-09-10T04:57:46.002Z,0.93
2022-09-10T05:02:49.076Z,1.08
2022-09-10T05:07:53.662Z,1.02
2022-09-10T05:12:55.742Z,1.10
2022-09-10T05:18:00.301Z,1.10
2022-09-10T05:23:03.168Z,1.23
2022-09-10T05:28:06.498Z,1.10
2022-09-10T05:38:12.209Z,0.85
2022-09-10T05:43:14.649Z,0.90
2022-09-10T05:48:20.460Z,0.90
2022-09-10T05:53:23.900Z,1.10
2022-09-10T05:58:27.922Z,1.00
2022-09-10T06:03:30.179Z,1.00
2022-09-10T06:08:35.937Z,0.70
2022-09-10T06:13:45.252Z,1.10
2022-09-10T06:18:48.215Z,1.13
2022-09-10T06:23:55.624Z,1.20
2022-09-10T06:28:59.944Z,1.27
2022-09-10T06:34:02.937Z,1.05
2022-09-10T06:39:07.407Z,0.93
2022-09-10T06:44:22.702Z,1.08
2022-09-10T06:49:32.343Z,1.20
2022-09-10T06:54:34.624Z,0.95
2022-09-10T06:59:51.728Z,1.15
2022-09-10T07:04:54.927Z,1.90
2022-09-10T07:09:57.032Z,1.10
2022-09-10T07:14:59.258Z,1.00
2022-09-10T07:20:04.639Z,1.02
2022-09-10T07:25:15.109Z,1.30
2022-09-10T07:30:47.670Z,1.00
2022-09-10T07:35:51.210Z,1.20
2022-09-10T07:40:54.752Z,1.35
2022-09-10T07:51:08.282Z,1.42
2022-09-10T07:56:11.906Z,1.50
2022-09-10T08:01:17.046Z,1.10
2022-09-10T08:06:19.597Z,1.50
2022-09-10T08:11:24.451Z,1.40
2022-09-10T08:16:29.492Z,1.27
2022-09-10T08:21:37.406Z,1.00
2022-09-10T08:26:40.789Z,1.58
2022-09-10T08:31:42.969Z,1.50
2022-09-10T08:36:53.375Z,1.40
2022-09-10T08:42:01.509Z,1.25
2022-09-10T08:47:14.981Z,1.20
2022-09-10T08:52:38.507Z,1.27
2022-09-10T08:57:51.731Z,1.20
2022-09-10T09:03:01.469Z,1.20
2022-09-10T09:08:06.443Z,1.33
2022-09-10T09:13:29.369Z,1.13
2022-09-10T09:18:50.883Z,1.17
2022-09-10T09:24:13.634Z,1.10
2022-09-10T09:29:56.589Z,1.05
2022-09-10T09:35:37.225Z,1.00
2022-09-10T09:40:50.892Z,0.95
2022-09-10T09:45:54.733Z,1.02
2022-09-10T09:56:07.477Z,1.13
2022-09-10T10:01:15.818Z,1.13
2022-09-10T10:06:23.937Z,1.90
2022-09-10T10:11:48.611Z,1.88
2022-09-10T10:16:55.153Z,1.55
2022-09-10T10:22:20.728Z,1.60
2022-09-10T10:27:29.512Z,1.55
2022-09-10T10:32:39.644Z,1.42
2022-09-10T10:38:25.403Z,1.58
2022-09-10T10:43:48.895Z,1.27
2022-09-10T10:49:04.810Z,1.42
2022-09-10T10:54:13.119Z,1.20
2022-09-10T11:00:01.324Z,1.38
2022-09-10T11:05:18.647Z,1.48
2022-09-10T11:10:27.588Z,0.93
2022-09-10T11:15:38.260Z,1.52
2022-09-10T11:20:56.663Z,1.10
2022-09-10T11:26:03.924Z,1.50
2022-09-10T11:31:14.430Z,1.27
2022-09-10T11:36:25.501Z,1.20
2022-09-10T11:41:32.087Z,1.27
2022-09-10T11:46:39.397Z,1.30
2022-09-10T11:51:42.799Z,1.13
2022-09-10T11:56:53.054Z,1.20
2022-09-10T12:02:07.681Z,1.20
2022-09-10T12:07:39.020Z,1.25
2022-09-10T12:12:49.436Z,1.20
2022-09-10T12:18:07.568Z,1.05
2022-09-10T12:23:19.861Z,1.10
2022-09-10T12:28:54.237Z,1.27
2022-09-10T12:33:57.938Z,1.02
2022-09-10T12:39:28.615Z,0.90
2022-09-10T12:44:51.093Z,1.05
2022-09-10T12:50:03.102Z,1.10
2022-09-10T12:55:36.323Z,1.33
2022-09-10T13:00:56.567Z,1.20
2022-09-10T13:06:02.216Z,1.23
2022-09-10T13:11:22.109Z,1.02
2022-09-10T13:16:26.869Z,1.00
2022-09-10T13:21:28.967Z,0.93
2022-09-10T13:26:35.545Z,1.20
2022-09-10T13:31:44.854Z,0.95
2022-09-10T13:37:05.594Z,1.00
2022-09-10T13:42:11.065Z,1.35
2022-09-10T13:47:19.567Z,1.13
2022-09-10T13:52:34.767Z,1.02
2022-09-10T13:57:41.150Z,1.17
2022-09-10T14:02:49.083Z,0.93
2022-09-10T14:07:51.603Z,1.20
2022-09-10T14:12:54.984Z,1.33
2022-09-10T14:17:59.064Z,1.40
2022-09-10T14:23:04.543Z,1.13
2022-09-10T14:28:27.743Z,1.10
2022-09-10T14:33:35.345Z,1.15
2022-09-10T14:38:40.423Z,1.00
2022-09-10T14:43:42.763Z,1.08
2022-09-10T14:49:17.957Z,1.10
2022-09-10T14:54:19.990Z,1.17
2022-09-10T14:59:33.199Z,1.30
2022-09-10T15:04:35.331Z,1.10
2022-09-10T15:09:37.657Z,0.77
2022-09-10T15:14:39.980Z,1.17
2022-09-10T15:19:42.260Z,1.00
2022-09-10T15:25:08.207Z,0.95
2022-09-10T15:30:07.901Z,0.93
2022-09-10T15:35:10.063Z,0.93
2022-09-10T15:40:12.215Z,0.93
2022-09-10T15:45:14.325Z,1.08
2022-09-10T15:50:17.501Z,0.80
2022-09-10T15:55:19.742Z,1.10
2022-09-10T16:00:22.193Z,1.10
2022-09-10T16:05:24.300Z,1.00
2022-09-10T16:10:26.657Z,1.20
2022-09-10T16:15:28.860Z,3.20
2022-09-10T16:20:30.883Z,2.10
2022-09-10T16:25:33.078Z,2.40
2022-09-10T16:30:35.489Z,2.33
2022-09-10T16:35:37.707Z,1.67
2022-09-10T16:40:39.724Z,2.10
2022-09-10T16:45:50.157Z,2.03
2022-09-10T16:50:52.176Z,1.80
2022-09-10T16:56:01.631Z,2.15
2022-09-10T17:01:06.693Z,2.13
2022-09-10T17:06:15.164Z,2.10
2022-09-10T17:11:19.735Z,2.13
2022-09-10T17:16:21.839Z,2.22
2022-09-10T17:21:25.676Z,3.03
2022-09-10T17:26:28.148Z,3.25
2022-09-10T17:31:30.960Z,2.75
2022-09-10T17:36:34.300Z,2.65
2022-09-10T17:41:36.981Z,2.00
2022-09-10T17:46:39.538Z,2.50
2022-09-10T17:51:42.859Z,2.00
2022-09-10T17:56:44.868Z,2.20
2022-09-10T18:01:47.787Z,3.55
2022-09-10T18:11:56.521Z,4.07
2022-09-10T18:16:59.061Z,3.95
2022-09-10T18:22:01.833Z,2.67
2022-09-10T18:27:05.567Z,2.95
2022-09-10T18:32:10.186Z,2.40
2022-09-10T18:37:13.900Z,1.95
2022-09-10T18:42:16.145Z,1.65
2022-09-10T18:47:41.322Z,1.77
2022-09-10T18:52:40.497Z,2.22
2022-09-10T18:57:42.485Z,1.85
2022-09-10T19:02:45.842Z,1.63
2022-09-10T19:07:48.669Z,1.92
2022-09-10T19:12:52.006Z,1.50
2022-09-10T19:17:54.161Z,1.75
2022-09-10T19:22:56.143Z,1.80
2022-09-10T19:27:58.164Z,1.90
2022-09-10T19:33:00.215Z,1.60
2022-09-10T19:38:15.796Z,1.80
2022-09-10T19:43:24.549Z,1.60
2022-09-10T19:48:26.656Z,1.40
2022-09-10T19:53:31.895Z,1.27
2022-09-10T19:58:35.706Z,1.50
2022-09-10T20:03:40.089Z,1.10
2022-09-10T20:08:42.337Z,1.20
2022-09-10T20:13:45.372Z,1.20
2022-09-10T20:23:52.668Z,1.00
2022-09-10T20:28:57.419Z,1.00
2022-09-10T20:34:02.346Z,1.10
2022-09-10T20:39:06.757Z,1.15
2022-09-10T20:44:10.631Z,1.25
2022-09-10T20:49:14.212Z,1.05
2022-09-10T20:54:18.719Z,1.20
2022-09-10T20:59:24.295Z,1.17
2022-09-10T21:04:28.944Z,1.00
2022-09-10T21:09:31.098Z,1.17
2022-09-10T21:14:33.545Z,1.20
2022-09-10T21:19:35.600Z,1.30
2022-09-10T21:24:39.907Z,1.23
2022-09-10T21:29:41.908Z,1.20
2022-09-10T21:34:43.956Z,0.93
2022-09-10T21:39:46.077Z,1.20
2022-09-10T21:44:48.337Z,1.00
2022-09-10T21:49:50.369Z,1.10
2022-09-10T21:54:52.632Z,1.00
2022-09-10T21:59:54.775Z,0.95
2022-09-10T22:04:57.484Z,0.80
2022-09-10T22:09:59.621Z,0.90
2022-09-10T22:15:01.854Z,0.70
2022-09-10T22:20:05.323Z,0.80
2022-09-10T22:25:07.827Z,0.98
2022-09-10T22:30:10.408Z,1.10
2022-09-10T22:35:12.423Z,1.02
2022-09-10T22:40:14.575Z,0.98
2022-09-10T22:45:17.661Z,0.70
2022-09-10T22:55:21.525Z,0.80
2022-09-10T23:00:23.657Z,1.30
2022-09-10T23:05:25.687Z,0.95
2022-09-10T23:10:27.675Z,0.70
2022-09-10T23:15:33.180Z,0.98
2022-09-10T23:20:35.134Z,0.70
2022-09-10T23:25:37.140Z,0.98
2022-09-10T23:30:39.139Z,0.88
2022-09-10T23:35:50.105Z,0.70
2022-09-10T23:40:53.056Z,0.85
2022-09-10T23:50:57.828Z,0.90
2022-09-10T23:55:59.882Z,0.70
